createdAt,value
2018-09-13T00:01:55.475Z,2.17
2018-09-13T00:06:59.267Z,2.37
2018-09-13T00:12:02.913Z,2.37
2018-09-13T00:17:06.333Z,3.50
2018-09-13T00:22:10.191Z,2.60
2018-09-13T00:27:14.225Z,3.30
2018-09-13T00:32:18.150Z,2.50
2018-09-13T00:37:21.916Z,2.80
2018-09-13T00:42:25.376Z,2.30
2018-09-13T00:47:29.367Z,4.60
2018-09-13T00:52:32.841Z,3.03
2018-09-13T00:57:36.831Z,2.00
2018-09-13T01:02:40.521Z,2.10
2018-09-13T01:07:44.910Z,2.10
2018-09-13T01:12:48.719Z,2.53
2018-09-13T01:17:52.504Z,1.93
2018-09-13T01:22:56.282Z,2.17
2018-09-13T01:27:59.735Z,1.80
2018-09-13T01:33:03.265Z,2.20
2018-09-13T01:38:06.806Z,2.30
2018-09-13T01:43:10.409Z,4.43
2018-09-13T01:48:14.055Z,2.50
2018-09-13T01:53:18.186Z,2.73
2018-09-13T01:58:21.762Z,2.87
2018-09-13T02:03:25.189Z,2.87
2018-09-13T02:08:28.819Z,2.73
2018-09-13T02:13:32.369Z,2.90
2018-09-13T02:18:36.079Z,2.30
2018-09-13T02:23:40.159Z,3.20
2018-09-13T02:28:44.085Z,2.30
2018-09-13T02:33:47.983Z,2.70
2018-09-13T02:38:51.406Z,2.30
2018-09-13T02:43:54.929Z,2.50
2018-09-13T02:48:58.571Z,3.03
2018-09-13T02:54:02.309Z,2.33
2018-09-13T02:59:05.893Z,2.67
2018-09-13T03:04:09.687Z,3.10
2018-09-13T03:09:13.290Z,2.00
2018-09-13T03:14:16.815Z,2.40
2018-09-13T03:19:20.542Z,2.30
2018-09-13T03:24:24.054Z,2.53
2018-09-13T03:29:27.803Z,2.50
2018-09-13T03:34:31.549Z,2.37
2018-09-13T03:39:35.353Z,2.67
2018-09-13T03:44:38.770Z,2.20
2018-09-13T03:49:42.854Z,2.30
2018-09-13T03:54:46.270Z,2.30
2018-09-13T03:59:49.622Z,2.40
2018-09-13T04:04:53.017Z,2.30
2018-09-13T04:09:56.663Z,2.40
2018-09-13T04:15:00.230Z,2.97
2018-09-13T04:20:03.695Z,2.67
2018-09-13T04:25:07.207Z,1.93
2018-09-13T04:30:10.642Z,2.60
2018-09-13T04:35:14.618Z,3.23
2018-09-13T04:40:18.286Z,2.80
2018-09-13T04:45:21.718Z,2.80
2018-09-13T04:50:25.194Z,2.90
2018-09-13T04:55:28.742Z,3.47
2018-09-13T05:00:32.190Z,3.70
2018-09-13T05:05:35.618Z,3.00
2018-09-13T05:10:39.296Z,3.40
2018-09-13T05:15:42.805Z,3.10
2018-09-13T05:20:46.268Z,2.30
2018-09-13T05:25:55.140Z,2.73
2018-09-13T05:31:03.733Z,2.90
2018-09-13T05:36:12.859Z,2.93
2018-09-13T05:41:16.410Z,2.70
2018-09-13T05:46:19.923Z,3.10
2018-09-13T05:51:25.888Z,2.43
2018-09-13T05:56:29.882Z,2.90
2018-09-13T06:01:33.773Z,2.97
2018-09-13T06:06:38.105Z,2.50
2018-09-13T06:11:42.702Z,2.70
2018-09-13T06:16:46.877Z,2.80
2018-09-13T06:21:50.652Z,2.80
2018-09-13T06:26:54.096Z,2.57
2018-09-13T06:31:57.512Z,2.33
2018-09-13T06:37:00.930Z,2.77
2018-09-13T06:42:04.320Z,2.60
2018-09-13T06:47:07.798Z,2.40
2018-09-13T06:52:11.167Z,3.57
2018-09-13T06:57:14.547Z,3.50
2018-09-13T07:02:17.938Z,3.23
2018-09-13T07:07:21.459Z,2.60
2018-09-13T07:12:24.885Z,3.20
2018-09-13T07:17:28.277Z,3.10
2018-09-13T07:22:31.652Z,3.27
2018-09-13T07:27:35.115Z,2.73
2018-09-13T07:32:38.481Z,3.30
2018-09-13T07:37:41.813Z,4.23
2018-09-13T07:42:45.252Z,3.17
2018-09-13T07:47:48.622Z,2.70
2018-09-13T07:52:52.281Z,2.43
2018-09-13T07:57:55.975Z,2.83
2018-09-13T08:02:59.629Z,3.93
2018-09-13T08:08:03.046Z,2.47
2018-09-13T08:13:06.512Z,2.87
2018-09-13T08:18:10.004Z,2.87
2018-09-13T08:23:13.412Z,3.23
2018-09-13T08:28:16.831Z,3.30
2018-09-13T08:33:20.370Z,2.67
2018-09-13T08:38:27.603Z,2.53
2018-09-13T08:43:31.581Z,2.53
2018-09-13T08:48:34.921Z,2.90
2018-09-13T08:53:38.304Z,2.27
2018-09-13T08:58:41.679Z,2.53
2018-09-13T09:03:45.034Z,2.10
2018-09-13T09:08:50.384Z,2.80
2018-09-13T09:13:56.287Z,2.53
2018-09-13T09:19:00.036Z,3.03
2018-09-13T09:24:03.462Z,2.80
2018-09-13T09:29:06.876Z,1.90
2018-09-13T09:34:10.237Z,3.03
2018-09-13T09:39:14.473Z,2.67
2018-09-13T09:44:17.955Z,1.97
2018-09-13T09:49:21.379Z,2.47
2018-09-13T09:54:24.726Z,2.67
2018-09-13T09:59:28.127Z,3.13
2018-09-13T10:04:31.521Z,2.60
2018-09-13T10:09:34.952Z,2.10
2018-09-13T10:14:38.334Z,2.13
2018-09-13T10:19:47.157Z,2.20
2018-09-13T10:24:55.834Z,2.30
2018-09-13T10:30:04.514Z,2.10
2018-09-13T10:35:13.414Z,2.23
2018-09-13T10:40:22.182Z,2.57
2018-09-13T10:46:30.929Z,2.33
2018-09-13T10:51:39.773Z,2.60
2018-09-13T10:56:43.234Z,1.80
2018-09-13T11:01:46.699Z,2.00
2018-09-13T11:06:50.270Z,1.67
2018-09-13T11:11:53.831Z,1.90
2018-09-13T11:16:57.279Z,1.87
2018-09-13T11:22:00.692Z,2.50
2018-09-13T11:27:04.222Z,1.97
2018-09-13T11:32:08.010Z,2.23
2018-09-13T11:37:11.449Z,2.00
2018-09-13T11:42:14.824Z,2.23
2018-09-13T11:47:18.191Z,1.80
2018-09-13T11:52:21.557Z,1.43
2018-09-13T11:57:24.958Z,2.50
2018-09-13T12:02:28.939Z,2.23
2018-09-13T12:07:32.389Z,2.30
2018-09-13T12:12:35.781Z,2.60
2018-09-13T12:17:39.247Z,2.07
2018-09-13T12:22:42.630Z,2.00
2018-09-13T12:27:46.079Z,1.97
2018-09-13T12:32:49.535Z,2.00
2018-09-13T12:37:52.957Z,1.70
2018-09-13T12:42:56.350Z,2.13
2018-09-13T12:47:59.731Z,1.93
2018-09-13T12:53:03.250Z,1.90
2018-09-13T12:58:06.659Z,2.00
2018-09-13T13:03:10.096Z,1.70
2018-09-13T13:08:13.592Z,2.37
2018-09-13T13:13:20.046Z,2.40
2018-09-13T13:18:24.073Z,1.60
2018-09-13T13:23:27.463Z,2.10
2018-09-13T13:28:31.796Z,1.77
2018-09-13T13:33:35.461Z,2.00
2018-09-13T13:38:39.354Z,1.60
2018-09-13T13:43:46.100Z,2.10
2018-09-13T13:48:50.070Z,1.53
2018-09-13T13:53:53.555Z,2.00
2018-09-13T13:58:56.959Z,1.73
2018-09-13T14:04:02.202Z,1.80
2018-09-13T14:09:09.000Z,1.70
2018-09-13T14:14:12.435Z,1.83
2018-09-13T14:19:16.224Z,2.33
2018-09-13T14:24:19.614Z,1.43
2018-09-13T14:29:23.035Z,1.90
2018-09-13T14:34:26.425Z,2.03
2018-09-13T14:39:29.839Z,1.60
2018-09-13T14:44:33.251Z,1.80
2018-09-13T14:49:36.676Z,1.60
2018-09-13T14:54:40.137Z,2.03
2018-09-13T14:59:47.061Z,2.10
2018-09-13T15:04:51.059Z,2.40
2018-09-13T15:09:54.476Z,1.97
2018-09-13T15:14:59.108Z,1.80
2018-09-13T15:20:03.157Z,2.43
2018-09-13T15:25:07.662Z,2.20
2018-09-13T15:30:11.120Z,2.13
2018-09-13T15:35:14.599Z,2.20
2018-09-13T15:40:18.035Z,2.30
2018-09-13T15:45:21.489Z,1.90
2018-09-13T15:50:24.905Z,2.40
2018-09-13T15:55:28.484Z,1.80
2018-09-13T16:00:34.853Z,1.63
2018-09-13T16:05:39.305Z,2.00
2018-09-13T16:10:42.722Z,1.90
2018-09-13T16:15:46.171Z,2.33
2018-09-13T16:20:49.696Z,2.20
2018-09-13T16:25:53.620Z,2.07
2018-09-13T16:30:57.140Z,2.13
2018-09-13T16:36:01.359Z,1.83
2018-09-13T16:41:11.009Z,2.03
2018-09-13T16:46:20.594Z,2.33
2018-09-13T16:51:24.108Z,2.07
2018-09-13T16:56:27.526Z,3.20
2018-09-13T17:01:30.953Z,2.30
2018-09-13T17:06:34.479Z,4.03
2018-09-13T17:11:38.162Z,2.57
2018-09-13T17:16:47.077Z,3.00
2018-09-13T17:21:51.593Z,2.97
2018-09-13T17:26:55.084Z,3.23
2018-09-13T17:31:58.564Z,3.60
2018-09-13T17:37:02.091Z,2.63
2018-09-13T17:42:05.882Z,2.90
2018-09-13T17:47:10.223Z,2.53
2018-09-13T17:52:15.591Z,3.27
2018-09-13T17:57:19.140Z,3.03
2018-09-13T18:02:23.084Z,3.17
2018-09-13T18:07:26.906Z,3.60
2018-09-13T18:12:30.599Z,3.30
2018-09-13T18:17:34.278Z,2.83
2018-09-13T18:22:37.926Z,2.70
2018-09-13T18:27:41.995Z,2.90
2018-09-13T18:32:45.575Z,3.27
2018-09-13T18:37:49.068Z,3.03
2018-09-13T18:42:52.634Z,3.67
2018-09-13T18:47:56.538Z,3.00
2018-09-13T18:53:00.350Z,2.87
2018-09-13T18:58:03.899Z,3.13
2018-09-13T19:03:07.320Z,4.37
2018-09-13T19:08:10.821Z,3.10
2018-09-13T19:13:14.356Z,5.33
2018-09-13T19:18:17.913Z,4.23
2018-09-13T19:23:25.399Z,3.20
2018-09-13T19:28:29.929Z,2.67
2018-09-13T19:33:33.553Z,2.40
2018-09-13T19:38:38.143Z,2.70
2018-09-13T19:43:41.789Z,2.57
2018-09-13T19:48:45.417Z,2.47
2018-09-13T19:53:48.943Z,2.00
2018-09-13T19:58:52.436Z,2.30
2018-09-13T20:03:56.874Z,2.60
2018-09-13T20:09:00.641Z,2.40
2018-09-13T20:14:04.181Z,2.77
2018-09-13T20:19:13.447Z,3.10
2018-09-13T20:24:18.562Z,2.80
2018-09-13T20:29:22.204Z,4.00
2018-09-13T20:34:25.697Z,3.03
2018-09-13T20:39:29.109Z,3.87
2018-09-13T20:44:33.771Z,4.33
2018-09-13T20:49:37.713Z,4.10
2018-09-13T20:54:41.187Z,3.93
2018-09-13T20:59:44.692Z,3.40
2018-09-13T21:04:48.128Z,5.23
2018-09-13T21:09:51.773Z,4.27
2018-09-13T21:14:55.183Z,3.70
2018-09-13T21:19:58.596Z,3.73
2018-09-13T21:25:03.247Z,4.00
2018-09-13T21:30:06.857Z,3.93
2018-09-13T21:35:10.285Z,4.30
2018-09-13T21:40:13.702Z,3.70
2018-09-13T21:45:17.100Z,3.60
2018-09-13T21:50:20.459Z,4.10
2018-09-13T21:55:23.907Z,4.70
2018-09-13T22:00:27.335Z,3.17
2018-09-13T22:05:30.954Z,3.60
2018-09-13T22:10:35.190Z,4.00
2018-09-13T22:15:38.695Z,5.00
2018-09-13T22:20:42.549Z,3.60
2018-09-13T22:25:46.028Z,3.80
2018-09-13T22:30:51.069Z,4.20
2018-09-13T22:35:56.931Z,2.83
2018-09-13T22:41:02.166Z,4.70
2018-09-13T22:46:08.112Z,3.90
2018-09-13T22:51:12.083Z,4.10
2018-09-13T22:56:16.409Z,5.37
2018-09-13T23:01:20.702Z,3.70
2018-09-13T23:06:24.834Z,3.60
2018-09-13T23:11:29.924Z,3.97
2018-09-13T23:16:34.162Z,3.73
2018-09-13T23:21:38.043Z,3.73
2018-09-13T23:26:42.027Z,3.40
2018-09-13T23:31:45.568Z,3.40
2018-09-13T23:36:49.839Z,3.80
2018-09-13T23:41:54.633Z,3.90
2018-09-13T23:46:58.259Z,3.87
2018-09-13T23:52:02.043Z,3.43
2018-09-13T23:57:15.306Z,3.43
